Audubon, NY

1:27 PM EST on December 18, 2014 (GMT -0500)
Washington Heights | Change Station
CLOSE
Current Station
Personal Weather Station
Location: New York, NY
Elevation: 200 ft
Nearby Weather Stations

Elev 200 ft 40.85 °N, 73.94 °W | Updated 5 minutes ago

Overcast
Overcast
40.8 °F
Feels Like 36 °F
N
6.8
Wind Variable Wind from West

Today
High -- | Low -- °F
--% Chance of Precip.
Yesterday
High -- | Low -- °F
Precip. -- in
7:15 AM 4:29 PM
Waning Crescent, 13% visible
Pressure 29.95 in
Visibility 10.0 miles
Clouds Overcast 4000 ft
Windchill 36 °F
Dew Point 28 °F
Humidity 61%
Rainfall 0.00 in
Snow Depth Not available.
UV 1 out of 12
Pollen .10 out of 12
Air Quality Not available.
Flu Activity Not available.
METAR KNYC 181751Z AUTO 29009G17KT 10SM OVC040 05/M06 A2997 RMK AO2 SLP140 T00501056 10056 20033 58016 $

More Conditions Fewer Conditions

Pressure 29.95 in
Visibility 10.0 miles
Clouds Overcast 4000 ft
Windchill 36 °F
Dew Point 28 °F
Humidity 61%
Rainfall 0.00 in
Snow Depth Not available.
UV 1 out of 12
Pollen .10 out of 12
Air Quality Not available.
Flu Activity Not available.
METAR KNYC 181751Z AUTO 29009G17KT 10SM OVC040 05/M06 A2997 RMK AO2 SLP140 T00501056 10056 20033 58016 $

More Conditions Fewer Conditions

10-Day Weather Forecast

Almanac

Astronomy

Dec. 18, 2014 Rise Set
Actual Time
Civil Twilight
Nautical Twilight
Astronomical Twilight
Moon
Length of Visible Light
Length of Day
Tomorrow will be .
, % of the Moon is Illuminated

Today's Extremes

State Highs State Lows

Community

WunderPhotos

Upload Photos

1,778,973 photos uploaded!

WunderBlogs® & News

Nearby

Air Quality

  Air Quality AQ Index Pollutant
Not available.

Snow Depth

Station Depth Elevation

Earthquake Activity

City Distance Mag. Time & Date
Minimum magnitude displayed is 2.5.

Coastal Water Temperatures

Place Temperature

Nearby Weather Stations